createdAt,value
2023-02-11T00:01:58.402Z,27.20
2023-02-11T00:04:29.090Z,27.10
2023-02-11T00:06:59.753Z,27.10
2023-02-11T00:09:31.857Z,27.00
2023-02-11T00:12:02.619Z,27.00
2023-02-11T00:14:33.287Z,27.00
2023-02-11T00:17:03.999Z,26.90
2023-02-11T00:19:34.763Z,26.90
2023-02-11T00:22:05.394Z,26.90
2023-02-11T00:24:36.522Z,27.00
2023-02-11T00:27:07.366Z,26.90
2023-02-11T00:29:39.108Z,26.90
2023-02-11T00:32:10.100Z,26.90
2023-02-11T00:34:41.370Z,27.00
2023-02-11T00:37:13.217Z,27.00
2023-02-11T00:39:44.172Z,27.00
2023-02-11T00:42:16.933Z,26.90
2023-02-11T00:44:48.339Z,27.00
2023-02-11T00:47:18.979Z,27.00
2023-02-11T00:49:49.799Z,26.90
2023-02-11T00:52:20.739Z,27.00
2023-02-11T00:54:51.937Z,27.00
2023-02-11T00:57:22.624Z,27.00
2023-02-11T00:59:53.500Z,27.00
2023-02-11T01:02:24.254Z,27.00
2023-02-11T01:04:55.218Z,27.10
2023-02-11T01:07:25.891Z,27.10
2023-02-11T01:09:57.014Z,27.10
2023-02-11T01:12:27.795Z,27.10
2023-02-11T01:14:59.148Z,27.10
2023-02-11T01:17:30.499Z,27.20
2023-02-11T01:20:01.565Z,27.20
2023-02-11T01:22:32.788Z,27.20
2023-02-11T01:25:04.015Z,27.20
2023-02-11T01:27:35.069Z,27.30
2023-02-11T01:30:07.773Z,27.40
2023-02-11T01:32:39.051Z,27.40
2023-02-11T01:35:10.886Z,27.50
2023-02-11T01:37:41.618Z,27.50
2023-02-11T01:40:15.366Z,27.60
2023-02-11T01:42:47.543Z,27.70
2023-02-11T01:45:43.751Z,27.80
2023-02-11T01:48:16.830Z,27.70
2023-02-11T01:50:50.126Z,27.70
2023-02-11T01:53:39.254Z,27.80
2023-02-11T01:56:28.619Z,27.80
2023-02-11T01:59:03.255Z,27.70
2023-02-11T02:01:36.986Z,27.80
2023-02-11T02:04:09.270Z,27.80
2023-02-11T02:06:48.855Z,27.80
2023-02-11T02:09:31.615Z,28.00
2023-02-11T02:12:05.277Z,27.90
2023-02-11T02:14:39.156Z,28.00
2023-02-11T02:17:10.996Z,28.10
2023-02-11T02:19:59.750Z,28.00
2023-02-11T02:22:51.277Z,28.00
2023-02-11T02:25:33.835Z,28.10
2023-02-11T02:28:22.348Z,28.10
2023-02-11T02:31:17.257Z,28.10
2023-02-11T02:33:59.880Z,28.30
2023-02-11T02:36:48.401Z,28.30
2023-02-11T02:39:25.074Z,28.20
2023-02-11T02:41:55.156Z,28.20
2023-02-11T02:44:26.724Z,28.30
2023-02-11T02:46:57.850Z,28.40
2023-02-11T02:49:29.054Z,28.50
2023-02-11T02:52:25.310Z,28.60
2023-02-11T02:54:56.567Z,28.40
2023-02-11T02:57:54.033Z,28.50
2023-02-11T03:00:31.166Z,28.70
2023-02-11T03:03:14.034Z,28.70
2023-02-11T03:05:59.469Z,28.60
2023-02-11T03:08:38.524Z,28.90
2023-02-11T03:11:14.814Z,28.80
2023-02-11T03:13:47.560Z,28.80
2023-02-11T03:16:24.167Z,28.90
2023-02-11T03:18:57.590Z,29.10
2023-02-11T03:21:29.446Z,29.10
2023-02-11T03:24:03.028Z,29.10
2023-02-11T03:26:51.077Z,29.20
2023-02-11T03:29:28.352Z,29.30
2023-02-11T03:32:19.710Z,29.40
2023-02-11T03:34:53.736Z,29.50
2023-02-11T03:37:36.038Z,29.50
2023-02-11T03:40:12.963Z,29.60
2023-02-11T03:42:58.303Z,29.70
2023-02-11T03:45:30.800Z,29.70
2023-02-11T03:48:10.354Z,29.80
2023-02-11T03:50:43.162Z,29.90
2023-02-11T03:53:17.863Z,30.00
2023-02-11T03:55:53.186Z,30.20
2023-02-11T03:58:24.383Z,30.30
2023-02-11T04:00:54.995Z,30.30
2023-02-11T04:03:25.672Z,30.50
2023-02-11T04:05:56.473Z,30.40
2023-02-11T04:08:27.593Z,30.60
2023-02-11T04:10:59.396Z,30.60
2023-02-11T04:13:32.505Z,30.70
2023-02-11T04:16:03.950Z,30.80
2023-02-11T04:18:35.305Z,30.80
2023-02-11T04:21:10.372Z,30.90
2023-02-11T04:23:41.559Z,31.00
2023-02-11T04:26:14.349Z,31.10
2023-02-11T04:28:50.208Z,31.10
2023-02-11T04:31:24.530Z,31.20
2023-02-11T04:33:57.062Z,31.30
2023-02-11T04:36:27.999Z,31.30
2023-02-11T04:38:59.284Z,31.50
2023-02-11T04:41:30.455Z,31.60
2023-02-11T04:44:01.710Z,31.70
2023-02-11T04:46:35.565Z,31.80
2023-02-11T04:49:07.807Z,32.00
2023-02-11T04:51:39.210Z,32.10
2023-02-11T04:54:10.178Z,32.30
2023-02-11T04:59:13.786Z,31.80
2023-02-11T05:06:45.142Z,32.50
2023-02-11T05:09:16.349Z,32.60
2023-02-11T05:11:48.364Z,32.60
2023-02-11T05:14:32.469Z,32.50
2023-02-11T05:17:03.292Z,32.50
2023-02-11T05:19:34.962Z,32.60
2023-02-11T05:22:06.177Z,32.70
2023-02-11T05:24:37.553Z,32.70
2023-02-11T05:27:08.873Z,32.80
2023-02-11T05:29:40.308Z,32.80
2023-02-11T05:32:12.236Z,32.90
2023-02-11T05:34:42.936Z,33.00
2023-02-11T05:37:14.009Z,33.10
2023-02-11T05:39:45.227Z,33.20
2023-02-11T05:42:16.542Z,33.10
2023-02-11T05:44:51.454Z,33.10
2023-02-11T05:47:22.171Z,33.10
2023-02-11T05:49:54.522Z,33.20
2023-02-11T05:52:25.830Z,33.20
2023-02-11T05:54:56.492Z,33.20
2023-02-11T05:57:27.205Z,33.20
2023-02-11T05:59:57.968Z,33.30
2023-02-11T06:02:28.968Z,33.30
2023-02-11T06:04:59.625Z,33.40
2023-02-11T06:07:31.099Z,33.50
2023-02-11T06:10:01.894Z,33.60
2023-02-11T06:12:32.866Z,33.60
2023-02-11T06:15:03.566Z,33.60
2023-02-11T06:17:34.936Z,33.60
2023-02-11T06:20:09.646Z,33.60
2023-02-11T06:22:40.433Z,33.60
2023-02-11T06:25:12.373Z,33.50
2023-02-11T06:27:43.219Z,33.40
2023-02-11T06:30:15.035Z,33.40
2023-02-11T06:32:46.233Z,33.40
2023-02-11T06:35:18.075Z,33.50
2023-02-11T06:37:50.289Z,33.60
2023-02-11T06:40:21.126Z,33.70
2023-02-11T06:42:51.811Z,33.80
2023-02-11T06:45:22.626Z,33.90
2023-02-11T06:47:54.711Z,33.90
2023-02-11T06:50:25.526Z,33.80
2023-02-11T06:52:56.310Z,33.80
2023-02-11T06:55:28.904Z,33.80
2023-02-11T07:00:49.587Z,33.90
2023-02-11T07:03:20.472Z,33.90
2023-02-11T07:05:51.543Z,34.00
2023-02-11T07:08:22.390Z,34.00
2023-02-11T07:10:54.916Z,34.00
2023-02-11T07:13:25.579Z,34.10
2023-02-11T07:15:56.271Z,34.10
2023-02-11T07:18:27.025Z,34.20
2023-02-11T07:20:57.732Z,34.30
2023-02-11T07:23:28.460Z,34.30
2023-02-11T07:25:59.264Z,34.30
2023-02-11T07:28:29.916Z,34.30
2023-02-11T07:31:01.208Z,34.30
2023-02-11T07:33:32.000Z,34.30
2023-02-11T07:36:04.054Z,34.30
2023-02-11T07:38:35.747Z,34.40
2023-02-11T07:41:14.993Z,34.40
2023-02-11T07:43:46.824Z,34.30
2023-02-11T07:46:23.063Z,34.30
2023-02-11T07:48:52.668Z,34.20
2023-02-11T07:51:26.139Z,34.20
2023-02-11T07:53:57.971Z,34.20
2023-02-11T07:56:43.234Z,34.20
2023-02-11T08:02:06.124Z,34.20
2023-02-11T08:04:36.755Z,34.20
2023-02-11T08:07:07.935Z,34.20
2023-02-11T08:09:38.693Z,34.30
2023-02-11T08:12:09.560Z,34.20
2023-02-11T08:14:44.549Z,34.20
2023-02-11T08:17:15.313Z,34.10
2023-02-11T08:19:46.343Z,34.20
2023-02-11T08:22:17.442Z,34.20
2023-02-11T08:25:08.605Z,34.20
2023-02-11T08:27:39.871Z,34.10
2023-02-11T08:30:11.606Z,34.10
2023-02-11T08:32:42.766Z,34.10
2023-02-11T08:35:14.032Z,34.10
2023-02-11T08:37:44.920Z,34.20
2023-02-11T08:40:15.713Z,34.10
2023-02-11T08:42:46.461Z,34.10
2023-02-11T08:45:17.821Z,34.10
2023-02-11T08:47:49.201Z,34.10
2023-02-11T08:50:20.704Z,34.10
2023-02-11T08:52:52.963Z,34.10
2023-02-11T08:55:23.656Z,34.10
2023-02-11T08:57:54.926Z,34.10
2023-02-11T09:00:26.145Z,34.10
2023-02-11T09:05:58.392Z,34.00
2023-02-11T09:08:29.742Z,34.00
2023-02-11T09:11:01.928Z,34.00
2023-02-11T09:13:34.025Z,34.00
2023-02-11T09:16:06.603Z,34.00
2023-02-11T09:18:37.388Z,34.00
2023-02-11T09:21:09.867Z,34.00
2023-02-11T09:23:43.296Z,34.00
2023-02-11T09:26:16.599Z,34.00
2023-02-11T09:28:48.088Z,33.90
2023-02-11T09:31:21.483Z,34.00
2023-02-11T09:33:55.086Z,33.90
2023-02-11T09:36:28.298Z,33.90
2023-02-11T09:39:02.189Z,33.90
2023-02-11T09:41:47.311Z,33.80
2023-02-11T09:44:26.236Z,33.80
2023-02-11T09:47:00.093Z,33.70
2023-02-11T09:49:50.245Z,33.80
2023-02-11T09:52:45.808Z,33.70
2023-02-11T09:55:31.077Z,33.70
2023-02-11T09:58:03.413Z,33.60
2023-02-11T10:00:49.238Z,33.60
2023-02-11T10:03:26.386Z,33.60
2023-02-11T10:06:11.910Z,33.60
2023-02-11T10:09:01.984Z,33.60
2023-02-11T10:11:36.915Z,33.50
2023-02-11T10:14:46.447Z,33.50
2023-02-11T10:17:43.392Z,33.50
2023-02-11T10:20:32.539Z,33.50
2023-02-11T10:23:14.919Z,33.50
2023-02-11T10:25:51.852Z,33.40
2023-02-11T10:28:26.016Z,33.40
2023-02-11T10:31:12.279Z,33.40
2023-02-11T10:33:48.585Z,33.30
2023-02-11T10:36:20.933Z,33.30
2023-02-11T10:38:51.818Z,33.20
2023-02-11T10:41:37.919Z,33.20
2023-02-11T10:44:09.926Z,33.20
2023-02-11T10:46:42.615Z,33.10
2023-02-11T10:49:16.128Z,33.10
2023-02-11T10:51:47.629Z,33.10
2023-02-11T10:54:22.462Z,33.00
2023-02-11T10:56:56.013Z,33.00
2023-02-11T10:59:32.509Z,32.90
2023-02-11T11:02:11.601Z,33.00
2023-02-11T11:04:52.365Z,32.90
2023-02-11T11:07:25.833Z,32.90
2023-02-11T11:10:00.425Z,32.80
2023-02-11T11:12:49.698Z,32.80
2023-02-11T11:15:26.544Z,32.80
2023-02-11T11:18:24.067Z,32.80
2023-02-11T11:21:09.667Z,32.70
2023-02-11T11:23:41.212Z,32.60
2023-02-11T11:26:14.449Z,32.70
2023-02-11T11:28:57.112Z,32.60
2023-02-11T11:31:39.097Z,32.60
2023-02-11T11:34:27.332Z,32.60
2023-02-11T11:36:59.265Z,32.50
2023-02-11T11:39:35.490Z,32.50
2023-02-11T11:42:08.763Z,32.40
2023-02-11T11:44:41.155Z,32.40
2023-02-11T11:47:17.994Z,32.40
2023-02-11T11:50:06.590Z,32.40
2023-02-11T11:52:40.057Z,32.30
2023-02-11T11:55:23.113Z,32.30
2023-02-11T11:57:54.055Z,32.30
2023-02-11T12:00:39.147Z,32.30
2023-02-11T12:03:27.399Z,32.20
2023-02-11T12:06:21.571Z,32.20
2023-02-11T12:09:00.458Z,32.20
2023-02-11T12:11:45.749Z,32.20
2023-02-11T12:14:27.827Z,32.20
2023-02-11T12:17:13.299Z,32.10
2023-02-11T12:20:19.281Z,32.10
2023-02-11T12:23:14.867Z,32.10
2023-02-11T12:25:58.968Z,32.10
2023-02-11T12:28:32.230Z,32.00
2023-02-11T12:31:21.898Z,32.00
2023-02-11T12:34:07.231Z,32.00
2023-02-11T12:36:46.414Z,32.00
2023-02-11T12:39:38.563Z,32.00
2023-02-11T12:42:56.614Z,32.00
2023-02-11T12:45:56.214Z,31.90
2023-02-11T12:48:48.807Z,31.90
2023-02-11T12:51:40.616Z,31.90
2023-02-11T12:54:16.575Z,31.80
2023-02-11T12:56:52.592Z,31.80
2023-02-11T12:59:28.381Z,31.80
2023-02-11T13:02:00.583Z,31.80
2023-02-11T13:04:40.006Z,31.80
2023-02-11T13:07:25.141Z,31.80
2023-02-11T13:10:03.173Z,31.80
2023-02-11T13:12:53.537Z,31.70
2023-02-11T13:15:25.088Z,31.60
2023-02-11T13:18:04.206Z,31.60
2023-02-11T13:20:52.343Z,31.60
2023-02-11T13:23:37.448Z,31.50
2023-02-11T13:26:26.911Z,31.50
2023-02-11T13:29:08.991Z,31.40
2023-02-11T13:31:39.898Z,31.40
2023-02-11T13:34:29.970Z,31.40
2023-02-11T13:37:00.808Z,31.40
2023-02-11T13:39:31.482Z,31.30
2023-02-11T13:42:06.346Z,31.40
2023-02-11T13:44:37.668Z,31.30
2023-02-11T13:47:09.116Z,31.30
2023-02-11T13:49:44.313Z,31.30
2023-02-11T13:52:33.113Z,31.30
2023-02-11T13:55:09.443Z,31.20
2023-02-11T13:57:41.418Z,31.20
2023-02-11T14:00:37.504Z,31.20
2023-02-11T14:03:34.097Z,31.20
2023-02-11T14:06:33.830Z,31.20
2023-02-11T14:09:12.972Z,31.10
2023-02-11T14:11:51.761Z,31.10
2023-02-11T14:14:25.284Z,31.10
2023-02-11T14:17:10.519Z,31.10
2023-02-11T14:19:46.193Z,31.00
2023-02-11T14:22:22.074Z,30.90
2023-02-11T14:25:01.106Z,30.90
2023-02-11T14:27:49.970Z,30.90
2023-02-11T14:30:39.842Z,30.90
2023-02-11T14:33:34.325Z,30.90
2023-02-11T14:36:16.480Z,30.90
2023-02-11T14:39:01.428Z,30.90
2023-02-11T14:41:40.739Z,30.90
2023-02-11T14:44:20.200Z,30.90
2023-02-11T14:46:54.416Z,30.90
2023-02-11T14:49:40.393Z,30.90
2023-02-11T14:52:19.543Z,30.80
2023-02-11T14:54:52.567Z,30.80
2023-02-11T14:57:23.826Z,30.80
2023-02-11T15:00:06.833Z,30.80
2023-02-11T15:02:41.628Z,30.80
2023-02-11T15:05:24.825Z,30.80
2023-02-11T15:07:58.406Z,30.80
2023-02-11T15:10:37.554Z,30.80
2023-02-11T15:13:08.447Z,30.70
2023-02-11T15:15:41.908Z,30.70
2023-02-11T15:18:15.293Z,30.70
2023-02-11T15:20:46.194Z,30.70
2023-02-11T15:23:20.879Z,30.60
2023-02-11T15:25:55.891Z,30.70
2023-02-11T15:28:35.207Z,30.60
2023-02-11T15:31:17.431Z,30.60
2023-02-11T15:33:48.333Z,30.60
2023-02-11T15:36:21.493Z,30.60
2023-02-11T15:39:11.248Z,30.50
2023-02-11T15:41:42.023Z,30.50
2023-02-11T15:44:29.714Z,30.50
2023-02-11T15:47:00.988Z,30.50
2023-02-11T15:49:31.850Z,30.40
2023-02-11T15:52:02.527Z,30.40
2023-02-11T15:54:33.586Z,30.40
2023-02-11T15:57:09.839Z,30.40
2023-02-11T15:59:42.792Z,30.40
2023-02-11T16:02:25.020Z,30.40
2023-02-11T16:04:58.620Z,30.40
2023-02-11T16:07:51.644Z,30.30
2023-02-11T16:10:34.730Z,30.30
2023-02-11T16:13:08.121Z,30.20
2023-02-11T16:15:47.317Z,30.20
2023-02-11T16:18:31.055Z,30.00
2023-02-11T16:20:55.248Z,30.00
2023-02-11T16:23:31.409Z,29.90
2023-02-11T16:26:06.045Z,29.90
2023-02-11T16:28:38.058Z,29.90
2023-02-11T16:31:10.897Z,29.90
2023-02-11T16:33:41.773Z,29.90
2023-02-11T16:36:18.827Z,29.90
2023-02-11T16:38:49.515Z,29.90
2023-02-11T16:41:20.162Z,29.80
2023-02-11T16:43:50.815Z,29.80
2023-02-11T16:46:21.613Z,29.70
2023-02-11T16:48:52.433Z,29.70
2023-02-11T16:51:23.356Z,29.60
2023-02-11T16:53:54.005Z,29.60
2023-02-11T16:56:24.660Z,29.60
2023-02-11T16:58:55.313Z,29.70
2023-02-11T17:01:26.135Z,29.70
2023-02-11T17:03:56.940Z,29.60
2023-02-11T17:06:27.792Z,29.60
2023-02-11T17:08:58.532Z,29.60
2023-02-11T17:11:29.209Z,29.60
2023-02-11T17:13:59.845Z,29.60
2023-02-11T17:16:31.069Z,29.50
2023-02-11T17:19:01.749Z,29.50
2023-02-11T17:21:33.106Z,29.50
2023-02-11T17:24:03.791Z,29.50
2023-02-11T17:26:35.811Z,29.50
2023-02-11T17:29:10.427Z,29.50
2023-02-11T17:31:42.927Z,29.50
2023-02-11T17:34:14.174Z,29.50
2023-02-11T17:36:44.921Z,29.40
2023-02-11T17:39:15.861Z,29.40
2023-02-11T17:41:46.529Z,29.40
2023-02-11T17:44:17.777Z,29.40
2023-02-11T17:46:48.470Z,29.40
2023-02-11T17:49:19.212Z,29.40
2023-02-11T17:51:49.855Z,29.40
2023-02-11T17:54:21.600Z,29.30
2023-02-11T17:56:52.256Z,29.30
2023-02-11T17:59:23.475Z,29.30
2023-02-11T18:01:54.156Z,29.30
2023-02-11T18:04:24.812Z,29.30
2023-02-11T18:06:55.624Z,29.30
2023-02-11T18:09:27.422Z,29.30
2023-02-11T18:11:59.506Z,29.30
2023-02-11T18:14:30.123Z,29.30
2023-02-11T18:17:00.775Z,29.20
2023-02-11T18:19:33.131Z,29.30
2023-02-11T18:22:05.428Z,29.20
2023-02-11T18:24:36.052Z,29.20
2023-02-11T18:27:06.909Z,29.20
2023-02-11T18:29:38.063Z,29.10
2023-02-11T18:32:08.983Z,29.10
2023-02-11T18:34:41.107Z,29.10
2023-02-11T18:37:12.699Z,29.10
2023-02-11T18:39:43.537Z,29.00
2023-02-11T18:42:14.205Z,28.90
2023-02-11T18:44:45.212Z,28.90
2023-02-11T18:47:15.854Z,28.80
2023-02-11T18:49:46.650Z,28.80
2023-02-11T18:52:17.428Z,28.80
2023-02-11T18:54:48.446Z,28.80
2023-02-11T18:57:19.109Z,28.80
2023-02-11T18:59:50.179Z,28.80
2023-02-11T19:02:21.470Z,28.80
2023-02-11T19:04:52.307Z,28.80
2023-02-11T19:07:22.981Z,28.80
2023-02-11T19:09:53.960Z,28.80
2023-02-11T19:12:24.590Z,28.70
2023-02-11T19:14:55.341Z,28.70
2023-02-11T19:17:25.972Z,28.70
2023-02-11T19:19:56.719Z,28.70
2023-02-11T19:22:27.544Z,28.70
2023-02-11T19:24:58.216Z,28.60
2023-02-11T19:27:29.284Z,28.60
2023-02-11T19:29:59.951Z,28.60
2023-02-11T19:32:30.991Z,28.50
2023-02-11T19:35:01.726Z,28.50
2023-02-11T19:37:32.447Z,28.50
2023-02-11T19:40:03.301Z,28.50
2023-02-11T19:42:33.953Z,28.50
2023-02-11T19:45:04.663Z,28.50
2023-02-11T19:47:35.505Z,28.50
2023-02-11T19:50:07.609Z,28.50
2023-02-11T19:52:42.505Z,28.40
2023-02-11T19:55:13.244Z,28.40
2023-02-11T19:57:43.908Z,28.40
2023-02-11T20:00:15.544Z,28.30
2023-02-11T20:02:47.642Z,28.30
2023-02-11T20:05:18.584Z,28.30
2023-02-11T20:07:49.261Z,28.20
2023-02-11T20:10:20.343Z,28.20
2023-02-11T20:12:51.447Z,28.20
2023-02-11T20:15:22.228Z,28.10
2023-02-11T20:18:04.795Z,28.10
2023-02-11T20:20:35.832Z,28.00
2023-02-11T20:23:06.466Z,28.00
2023-02-11T20:25:38.364Z,28.00
2023-02-11T20:28:09.119Z,28.00
2023-02-11T20:30:40.570Z,28.00
2023-02-11T20:33:11.366Z,28.00
2023-02-11T20:35:42.013Z,28.00
2023-02-11T20:38:12.674Z,27.90
2023-02-11T20:40:44.789Z,27.90
2023-02-11T20:43:15.428Z,27.80
2023-02-11T20:45:46.072Z,27.80
2023-02-11T20:48:17.123Z,27.80
2023-02-11T20:50:48.430Z,27.70
2023-02-11T20:53:19.146Z,27.70
2023-02-11T20:55:50.026Z,27.70
2023-02-11T20:58:20.835Z,27.70
2023-02-11T21:00:51.497Z,27.70
2023-02-11T21:03:22.289Z,27.70
2023-02-11T21:05:53.367Z,27.70
2023-02-11T21:08:24.281Z,27.70
2023-02-11T21:10:54.957Z,27.60
2023-02-11T21:13:25.592Z,27.60
2023-02-11T21:15:59.480Z,27.70
2023-02-11T21:18:30.223Z,27.70
2023-02-11T21:21:01.266Z,27.70
2023-02-11T21:23:32.105Z,27.60
2023-02-11T21:26:02.801Z,27.60
2023-02-11T21:28:33.543Z,27.60
2023-02-11T21:31:04.692Z,27.60
2023-02-11T21:33:35.928Z,27.60
2023-02-11T21:36:09.012Z,27.50
2023-02-11T21:38:40.128Z,27.50
2023-02-11T21:41:11.503Z,27.50
2023-02-11T21:43:42.179Z,27.50
2023-02-11T21:46:15.472Z,27.50
2023-02-11T21:48:46.173Z,27.50
2023-02-11T21:51:18.974Z,27.50
2023-02-11T21:53:49.859Z,27.50
2023-02-11T21:56:21.417Z,27.50
2023-02-11T21:58:54.532Z,27.50
2023-02-11T22:01:30.448Z,27.40
2023-02-11T22:04:01.285Z,27.40
2023-02-11T22:06:33.638Z,27.40
2023-02-11T22:09:12.317Z,27.40
2023-02-11T22:11:43.002Z,27.40
2023-02-11T22:14:13.638Z,27.40
2023-02-11T22:16:45.588Z,27.40
2023-02-11T22:19:16.400Z,27.40
2023-02-11T22:21:47.116Z,27.40
2023-02-11T22:24:17.775Z,27.40
2023-02-11T22:26:48.447Z,27.40
2023-02-11T22:29:19.071Z,27.40
2023-02-11T22:31:49.766Z,27.30
2023-02-11T22:34:20.702Z,27.30
2023-02-11T22:36:51.363Z,27.20
2023-02-11T22:39:22.006Z,27.30
2023-02-11T22:41:53.123Z,27.20
2023-02-11T22:44:23.787Z,27.20
2023-02-11T22:46:55.726Z,27.20
2023-02-11T22:49:26.398Z,27.20
2023-02-11T22:51:57.367Z,27.20
2023-02-11T22:54:28.135Z,27.20
2023-02-11T22:56:58.799Z,27.20
2023-02-11T22:59:29.454Z,27.10
2023-02-11T23:02:00.209Z,27.10
2023-02-11T23:04:31.039Z,27.00
2023-02-11T23:07:01.697Z,27.00
2023-02-11T23:09:32.890Z,26.90
2023-02-11T23:12:03.554Z,26.90
2023-02-11T23:14:34.455Z,26.90
2023-02-11T23:17:05.083Z,26.90
2023-02-11T23:19:35.699Z,26.90
2023-02-11T23:22:06.587Z,26.80
2023-02-11T23:24:37.259Z,26.80
2023-02-11T23:27:07.964Z,26.80
2023-02-11T23:29:38.568Z,26.80
2023-02-11T23:32:09.342Z,26.70
2023-02-11T23:34:40.087Z,26.70
2023-02-11T23:37:10.794Z,26.70
2023-02-11T23:39:41.465Z,26.70
2023-02-11T23:42:13.181Z,26.70
2023-02-11T23:44:43.819Z,26.70
2023-02-11T23:47:14.474Z,26.70
2023-02-11T23:49:45.126Z,26.70
2023-02-11T23:52:15.847Z,26.70
2023-02-11T23:54:47.835Z,26.70
2023-02-11T23:57:19.054Z,26.70
2023-02-11T23:59:51.440Z,26.70
